createdAt,value
2019-04-27T00:02:18.137Z,10.80
2019-04-27T00:05:06.351Z,10.90
2019-04-27T00:07:47.395Z,10.90
2019-04-27T00:10:36.895Z,11.00
2019-04-27T00:13:08.281Z,11.10
2019-04-27T00:16:13.481Z,11.10
2019-04-27T00:19:01.683Z,11.10
2019-04-27T00:21:58.397Z,11.10
2019-04-27T00:24:29.276Z,11.10
2019-04-27T00:27:00.484Z,11.20
2019-04-27T00:29:33.079Z,11.20
2019-04-27T00:32:04.357Z,11.20
2019-04-27T00:34:35.677Z,11.30
2019-04-27T00:37:28.640Z,11.30
2019-04-27T00:40:21.552Z,11.20
2019-04-27T00:42:54.159Z,11.20
2019-04-27T00:45:26.849Z,11.20
2019-04-27T00:47:59.854Z,11.20
2019-04-27T00:50:30.464Z,11.20
2019-04-27T00:53:03.258Z,11.20
2019-04-27T00:55:35.556Z,11.20
2019-04-27T00:58:17.167Z,11.20
2019-04-27T01:01:04.121Z,11.10
2019-04-27T01:03:44.630Z,11.10
2019-04-27T01:06:15.613Z,11.10
2019-04-27T01:08:46.489Z,11.10
2019-04-27T01:11:17.398Z,11.10
2019-04-27T01:13:48.308Z,11.00
2019-04-27T01:16:22.001Z,11.00
2019-04-27T01:18:51.679Z,11.00
2019-04-27T01:21:22.515Z,11.00
2019-04-27T01:23:53.463Z,11.00
2019-04-27T01:26:33.622Z,10.90
2019-04-27T01:29:08.212Z,10.90
2019-04-27T01:31:39.602Z,10.90
2019-04-27T01:34:10.892Z,10.90
2019-04-27T01:36:41.836Z,10.90
2019-04-27T01:39:14.666Z,10.90
2019-04-27T01:41:45.568Z,10.90
2019-04-27T01:44:16.431Z,10.90
2019-04-27T01:46:48.702Z,10.90
2019-04-27T01:49:19.908Z,10.90
2019-04-27T01:51:51.756Z,10.90
2019-04-27T01:54:24.271Z,10.90
2019-04-27T01:56:55.274Z,11.00
2019-04-27T01:59:26.108Z,11.00
2019-04-27T02:02:14.625Z,11.00
2019-04-27T02:05:03.043Z,11.00
2019-04-27T02:07:34.504Z,11.00
2019-04-27T02:10:06.900Z,10.90
2019-04-27T02:12:39.687Z,11.00
2019-04-27T02:15:10.696Z,11.00
2019-04-27T02:17:41.672Z,11.00
2019-04-27T02:20:12.911Z,11.10
2019-04-27T02:22:43.799Z,11.10
2019-04-27T02:25:14.887Z,11.10
2019-04-27T02:27:49.108Z,11.10
2019-04-27T02:30:42.999Z,11.10
2019-04-27T02:33:40.194Z,11.10
2019-04-27T02:36:14.963Z,11.00
2019-04-27T02:38:43.924Z,11.00
2019-04-27T02:41:14.831Z,11.00
2019-04-27T02:44:03.060Z,11.10
2019-04-27T02:46:33.894Z,11.00
2019-04-27T02:49:07.154Z,11.00
2019-04-27T02:51:49.678Z,10.90
2019-04-27T02:54:20.614Z,10.90
2019-04-27T02:56:52.689Z,10.90
2019-04-27T02:59:23.978Z,10.80
2019-04-27T03:02:03.631Z,10.70
2019-04-27T03:04:34.768Z,10.70
2019-04-27T03:07:05.994Z,10.60
2019-04-27T03:09:39.432Z,10.50
2019-04-27T03:12:10.259Z,10.50
2019-04-27T03:14:54.834Z,10.50
2019-04-27T03:17:49.410Z,10.50
2019-04-27T03:20:40.270Z,10.50
2019-04-27T03:23:11.801Z,10.60
2019-04-27T03:26:01.961Z,10.60
2019-04-27T03:28:32.853Z,10.60
2019-04-27T03:31:03.718Z,10.70
2019-04-27T03:33:35.096Z,10.70
2019-04-27T03:36:07.261Z,10.70
2019-04-27T03:38:39.719Z,10.70
2019-04-27T03:41:10.873Z,10.80
2019-04-27T03:43:41.820Z,10.70
2019-04-27T03:46:12.668Z,10.70
2019-04-27T03:48:43.566Z,10.70
2019-04-27T03:51:26.173Z,10.70
2019-04-27T03:54:05.060Z,10.60
2019-04-27T03:56:50.475Z,10.60
2019-04-27T03:59:29.925Z,10.60
2019-04-27T04:02:02.489Z,10.60
2019-04-27T04:04:33.452Z,10.60
2019-04-27T04:07:14.409Z,10.60
2019-04-27T04:09:45.243Z,10.60
2019-04-27T04:12:30.867Z,10.60
2019-04-27T04:15:01.758Z,10.60
2019-04-27T04:17:33.239Z,10.70
2019-04-27T04:20:04.163Z,10.70
2019-04-27T04:22:35.032Z,10.80
2019-04-27T04:25:05.958Z,10.80
2019-04-27T04:27:36.878Z,10.90
2019-04-27T04:30:09.783Z,10.90
2019-04-27T04:32:40.520Z,11.00
2019-04-27T04:35:21.932Z,11.00
2019-04-27T04:37:53.445Z,11.10
2019-04-27T04:40:35.714Z,11.10
2019-04-27T04:43:14.984Z,11.20
2019-04-27T04:46:01.068Z,11.20
2019-04-27T04:48:31.918Z,11.30
2019-04-27T04:51:02.826Z,11.30
2019-04-27T04:53:33.997Z,11.30
2019-04-27T04:56:05.876Z,11.30
2019-04-27T04:58:36.737Z,11.40
2019-04-27T05:01:09.718Z,11.40
2019-04-27T05:03:40.193Z,11.40
2019-04-27T05:06:11.050Z,11.40
2019-04-27T05:08:41.928Z,11.50
2019-04-27T05:11:13.637Z,11.50
2019-04-27T05:13:45.480Z,11.50
2019-04-27T05:16:16.351Z,11.40
2019-04-27T05:18:47.179Z,11.40
2019-04-27T05:21:36.297Z,11.50
2019-04-27T05:24:09.215Z,11.50
2019-04-27T05:26:39.859Z,11.50
2019-04-27T05:29:10.708Z,11.50
2019-04-27T05:31:41.604Z,11.50
2019-04-27T05:34:12.467Z,11.50
2019-04-27T05:36:48.806Z,11.50
2019-04-27T05:39:19.498Z,11.50
2019-04-27T05:41:49.795Z,11.60
2019-04-27T05:44:39.683Z,11.60
2019-04-27T05:47:23.610Z,11.70
2019-04-27T05:50:01.080Z,11.70
2019-04-27T05:52:32.029Z,11.70
2019-04-27T05:55:02.882Z,11.70
2019-04-27T05:57:33.824Z,11.80
2019-04-27T06:00:06.103Z,11.80
2019-04-27T06:02:37.031Z,11.80
2019-04-27T06:05:08.821Z,11.80
2019-04-27T06:07:39.727Z,11.90
2019-04-27T06:10:10.704Z,11.90
2019-04-27T06:12:41.508Z,12.00
2019-04-27T06:15:12.720Z,12.00
2019-04-27T06:17:43.561Z,12.00
2019-04-27T06:20:16.018Z,12.10
2019-04-27T06:22:48.764Z,12.10
2019-04-27T06:25:21.626Z,12.20
2019-04-27T06:27:51.976Z,12.30
2019-04-27T06:30:22.794Z,12.50
2019-04-27T06:32:53.676Z,12.50
2019-04-27T06:35:24.440Z,12.60
2019-04-27T06:37:56.250Z,12.60
2019-04-27T06:40:28.951Z,12.60
2019-04-27T06:42:59.688Z,12.60
2019-04-27T06:45:30.610Z,12.50
2019-04-27T06:48:01.514Z,12.50
2019-04-27T06:50:32.387Z,12.50
2019-04-27T06:53:03.269Z,12.40
2019-04-27T06:55:34.077Z,12.40
2019-04-27T06:58:04.955Z,12.40
2019-04-27T07:00:35.926Z,12.40
2019-04-27T07:03:06.789Z,12.40
2019-04-27T07:05:38.797Z,12.40
2019-04-27T07:08:09.800Z,12.40
2019-04-27T07:10:40.783Z,12.50
2019-04-27T07:13:12.453Z,12.50
2019-04-27T07:15:43.228Z,12.60
2019-04-27T07:18:14.162Z,12.70
2019-04-27T07:20:45.515Z,12.80
2019-04-27T07:23:16.465Z,12.90
2019-04-27T07:25:48.875Z,13.00
2019-04-27T07:28:19.768Z,13.20
2019-04-27T07:30:50.786Z,13.40
2019-04-27T07:33:21.883Z,13.60
2019-04-27T07:35:52.795Z,13.80
2019-04-27T07:38:23.821Z,14.00
2019-04-27T07:40:54.692Z,14.20
2019-04-27T07:43:33.711Z,14.40
2019-04-27T07:46:04.875Z,14.60
2019-04-27T07:48:36.602Z,14.80
2019-04-27T07:51:08.955Z,15.10
2019-04-27T07:53:40.104Z,15.40
2019-04-27T07:56:11.007Z,15.80
2019-04-27T07:58:41.884Z,16.50
2019-04-27T08:01:13.039Z,17.50
2019-04-27T08:03:43.986Z,18.80
2019-04-27T08:06:14.919Z,21.00
2019-04-27T08:08:45.936Z,23.50
2019-04-27T08:11:16.803Z,25.00
2019-04-27T08:13:49.012Z,28.40
2019-04-27T08:16:20.771Z,31.50
2019-04-27T08:18:52.671Z,33.70
2019-04-27T08:21:23.403Z,35.20
2019-04-27T08:23:54.288Z,36.10
2019-04-27T08:26:31.222Z,36.40
2019-04-27T08:29:24.187Z,37.30
2019-04-27T08:31:58.627Z,37.90
2019-04-27T08:34:32.604Z,38.40
2019-04-27T08:37:04.415Z,39.00
2019-04-27T08:39:35.804Z,39.00
2019-04-27T08:42:06.692Z,38.40
2019-04-27T08:44:39.328Z,37.70
2019-04-27T08:47:10.040Z,37.00
2019-04-27T08:49:40.940Z,37.90
2019-04-27T08:52:11.791Z,40.20
2019-04-27T08:54:42.727Z,40.50
2019-04-27T08:57:13.579Z,41.80
2019-04-27T08:59:44.449Z,43.30
2019-04-27T09:02:15.600Z,44.60
2019-04-27T09:04:46.499Z,44.70
2019-04-27T09:07:39.765Z,44.20
2019-04-27T09:10:18.733Z,44.70
2019-04-27T09:13:08.932Z,45.20
2019-04-27T09:15:44.197Z,45.50
2019-04-27T09:18:19.089Z,45.90
2019-04-27T09:20:53.011Z,46.20
2019-04-27T09:23:24.143Z,45.60
2019-04-27T09:25:55.184Z,44.00
2019-04-27T09:28:26.055Z,43.40
2019-04-27T09:30:58.256Z,43.70
2019-04-27T09:33:29.662Z,43.20
2019-04-27T09:39:26.409Z,38.50
2019-04-27T09:41:57.344Z,35.40
2019-04-27T09:44:28.132Z,32.90
2019-04-27T09:46:58.954Z,31.00
2019-04-27T09:49:29.867Z,29.50
2019-04-27T09:52:01.026Z,28.10
2019-04-27T09:54:32.019Z,27.00
2019-04-27T09:57:03.003Z,26.10
2019-04-27T09:59:33.921Z,25.40
2019-04-27T10:02:08.425Z,25.10
2019-04-27T10:04:38.798Z,25.80
2019-04-27T10:07:09.677Z,29.10
2019-04-27T10:09:40.902Z,31.40
2019-04-27T10:12:13.653Z,31.00
2019-04-27T10:14:45.421Z,29.60
2019-04-27T10:17:17.401Z,28.00
2019-04-27T10:19:48.261Z,26.50
2019-04-27T10:22:19.198Z,25.40
2019-04-27T10:24:50.297Z,24.70
2019-04-27T10:27:21.263Z,24.40
2019-04-27T10:29:52.289Z,24.40
2019-04-27T10:32:23.122Z,24.40
2019-04-27T10:34:54.360Z,24.20
2019-04-27T10:37:25.364Z,24.20
2019-04-27T10:39:56.351Z,24.20
2019-04-27T10:42:30.607Z,23.90
2019-04-27T10:45:01.765Z,23.50
2019-04-27T10:47:33.308Z,23.10
2019-04-27T10:50:05.827Z,22.70
2019-04-27T10:52:37.819Z,22.30
2019-04-27T10:55:08.887Z,21.70
2019-04-27T10:57:39.874Z,21.10
2019-04-27T11:00:20.424Z,20.50
2019-04-27T11:02:51.422Z,19.80
2019-04-27T11:05:31.072Z,19.30
2019-04-27T11:08:00.413Z,18.70
2019-04-27T11:10:31.378Z,18.30
2019-04-27T11:13:02.177Z,18.00
2019-04-27T11:15:33.147Z,17.60
2019-04-27T11:18:04.121Z,17.60
2019-04-27T11:20:36.255Z,18.10
2019-04-27T11:23:12.130Z,18.90
2019-04-27T11:25:40.733Z,19.60
2019-04-27T11:28:11.653Z,20.00
2019-04-27T11:30:42.495Z,20.20
2019-04-27T11:33:13.363Z,20.30
2019-04-27T11:36:18.103Z,20.40
2019-04-27T11:38:49.680Z,20.60
2019-04-27T11:41:20.695Z,20.30
2019-04-27T11:43:51.617Z,20.00
2019-04-27T11:46:22.717Z,19.80
2019-04-27T11:48:53.809Z,19.50
2019-04-27T11:51:26.592Z,19.30
2019-04-27T11:53:57.571Z,19.10
2019-04-27T11:56:28.540Z,18.90
2019-04-27T11:58:59.447Z,18.60
2019-04-27T12:01:30.369Z,18.30
2019-04-27T12:04:01.343Z,17.90
2019-04-27T12:06:32.311Z,17.60
2019-04-27T12:09:03.698Z,17.20
2019-04-27T12:11:36.302Z,17.00
2019-04-27T12:14:07.224Z,17.00
2019-04-27T12:16:38.182Z,17.40
2019-04-27T12:19:09.029Z,17.90
2019-04-27T12:21:42.823Z,18.40
2019-04-27T12:24:13.764Z,18.70
2019-04-27T12:26:51.381Z,18.90
2019-04-27T12:29:24.314Z,18.80
2019-04-27T12:31:56.256Z,18.70
2019-04-27T12:34:27.909Z,18.60
2019-04-27T12:36:59.191Z,18.60
2019-04-27T12:39:30.062Z,18.70
2019-04-27T12:42:01.059Z,18.70
2019-04-27T12:44:32.104Z,18.70
2019-04-27T12:47:02.976Z,18.60
2019-04-27T12:49:36.259Z,18.30
2019-04-27T12:52:07.757Z,18.20
2019-04-27T12:54:53.874Z,18.40
2019-04-27T12:57:58.816Z,18.70
2019-04-27T13:00:36.772Z,19.00
2019-04-27T13:03:07.721Z,19.30
2019-04-27T13:05:38.659Z,19.50
2019-04-27T13:08:09.507Z,19.70
2019-04-27T13:10:40.397Z,20.10
2019-04-27T13:13:11.506Z,20.50
2019-04-27T13:15:42.490Z,20.80
2019-04-27T13:18:13.477Z,21.20
2019-04-27T13:20:44.484Z,21.40
2019-04-27T13:23:15.411Z,21.30
2019-04-27T13:25:46.317Z,21.10
2019-04-27T13:28:18.683Z,20.90
2019-04-27T13:30:50.040Z,20.70
2019-04-27T13:33:21.263Z,20.70
2019-04-27T13:35:52.241Z,20.70
2019-04-27T13:38:23.144Z,20.60
2019-04-27T13:41:09.868Z,20.40
2019-04-27T13:43:40.917Z,20.20
2019-04-27T13:46:33.856Z,20.00
2019-04-27T13:49:32.762Z,20.00
2019-04-27T13:52:08.275Z,19.90
2019-04-27T13:54:46.003Z,19.80
2019-04-27T13:57:18.386Z,19.50
2019-04-27T13:59:49.373Z,19.20
2019-04-27T14:02:21.521Z,18.80
2019-04-27T14:04:52.878Z,18.40
2019-04-27T14:07:27.076Z,18.10
2019-04-27T14:10:00.041Z,17.90
2019-04-27T14:12:30.933Z,17.80
2019-04-27T14:15:01.802Z,17.60
2019-04-27T14:17:35.411Z,17.30
2019-04-27T14:20:07.872Z,17.10
2019-04-27T14:22:39.305Z,17.10
2019-04-27T14:25:19.564Z,17.10
2019-04-27T14:27:50.541Z,17.20
2019-04-27T14:30:22.709Z,17.20
2019-04-27T14:32:53.654Z,17.00
2019-04-27T14:35:24.608Z,16.60
2019-04-27T14:37:55.430Z,16.30
2019-04-27T14:40:26.416Z,16.10
2019-04-27T14:42:58.943Z,15.80
2019-04-27T14:45:30.074Z,15.50
2019-04-27T14:48:04.501Z,15.40
2019-04-27T14:50:35.677Z,15.40
2019-04-27T14:53:09.424Z,15.50
2019-04-27T14:55:41.263Z,15.60
2019-04-27T14:58:12.220Z,15.70
2019-04-27T15:00:43.131Z,15.80
2019-04-27T15:03:14.240Z,15.80
2019-04-27T15:05:45.183Z,15.80
2019-04-27T15:08:16.120Z,15.70
2019-04-27T15:10:46.974Z,15.70
2019-04-27T15:13:18.850Z,15.70
2019-04-27T15:15:50.811Z,15.70
2019-04-27T15:18:29.649Z,15.70
2019-04-27T15:21:02.657Z,15.70
2019-04-27T15:23:33.438Z,15.80
2019-04-27T15:26:06.992Z,15.80
2019-04-27T15:28:39.405Z,15.80
2019-04-27T15:31:39.043Z,15.90
2019-04-27T15:34:35.288Z,16.00
2019-04-27T15:37:28.101Z,16.20
2019-04-27T15:40:32.990Z,16.30
2019-04-27T15:43:13.232Z,16.30
2019-04-27T15:45:44.276Z,16.30
2019-04-27T15:48:17.902Z,16.20
2019-04-27T15:50:48.681Z,16.20
2019-04-27T15:53:19.812Z,16.00
2019-04-27T15:55:53.698Z,15.90
2019-04-27T15:58:28.224Z,15.80
2019-04-27T16:01:02.373Z,15.80
2019-04-27T16:03:32.100Z,15.90
2019-04-27T16:06:07.083Z,16.00
2019-04-27T16:08:38.185Z,16.00
2019-04-27T16:11:09.999Z,16.00
2019-04-27T16:13:40.816Z,15.90
2019-04-27T16:16:12.623Z,15.70
2019-04-27T16:18:43.553Z,15.60
2019-04-27T16:21:14.415Z,15.40
2019-04-27T16:23:45.350Z,15.20
2019-04-27T16:26:18.163Z,15.10
2019-04-27T16:28:53.429Z,15.00
2019-04-27T16:31:31.501Z,14.90
2019-04-27T16:34:02.754Z,14.90
2019-04-27T16:36:32.279Z,15.00
2019-04-27T16:39:09.950Z,15.00
2019-04-27T16:41:42.666Z,15.10
2019-04-27T16:44:14.093Z,15.10
2019-04-27T16:46:48.913Z,15.20
2019-04-27T16:49:23.800Z,15.20
2019-04-27T16:51:59.073Z,15.20
2019-04-27T16:54:30.340Z,15.00
2019-04-27T16:57:05.167Z,14.70
2019-04-27T16:59:43.281Z,14.40
2019-04-27T17:02:08.370Z,13.90
2019-04-27T17:04:39.431Z,13.60
2019-04-27T17:07:11.291Z,13.30
2019-04-27T17:09:46.380Z,13.00
2019-04-27T17:12:18.462Z,12.80
2019-04-27T17:15:10.597Z,12.60
2019-04-27T17:17:50.838Z,12.40
2019-04-27T17:20:21.341Z,12.30
2019-04-27T17:22:53.478Z,12.10
2019-04-27T17:25:24.422Z,11.80
2019-04-27T17:28:03.968Z,11.60
2019-04-27T17:30:37.908Z,11.40
2019-04-27T17:33:19.268Z,11.20
2019-04-27T17:35:49.298Z,11.10
2019-04-27T17:38:20.183Z,10.90
2019-04-27T17:40:51.866Z,10.80
2019-04-27T17:43:22.824Z,10.70
2019-04-27T17:45:53.747Z,10.60
2019-04-27T17:48:24.791Z,10.60
2019-04-27T17:50:55.985Z,10.50
2019-04-27T17:53:29.843Z,10.50
2019-04-27T17:56:05.630Z,10.50
2019-04-27T17:58:35.403Z,10.50
2019-04-27T18:01:13.901Z,10.40
2019-04-27T18:03:42.418Z,10.40
2019-04-27T18:06:13.405Z,10.30
2019-04-27T18:08:44.346Z,10.30
2019-04-27T18:11:15.211Z,10.20
2019-04-27T18:13:46.166Z,10.10
2019-04-27T18:16:18.989Z,10.10
2019-04-27T18:19:08.016Z,10.00
2019-04-27T18:21:33.848Z,10.00
2019-04-27T18:24:10.146Z,10.00
2019-04-27T18:26:51.656Z,10.00
2019-04-27T18:29:22.725Z,10.00
2019-04-27T18:31:54.625Z,10.00
2019-04-27T18:34:24.822Z,10.00
2019-04-27T18:36:56.034Z,10.00
2019-04-27T18:39:27.253Z,9.80
2019-04-27T18:41:58.501Z,9.80
2019-04-27T18:44:31.870Z,9.60
2019-04-27T18:47:02.386Z,9.40
2019-04-27T18:50:08.000Z,9.30
2019-04-27T18:52:47.655Z,9.20
2019-04-27T18:55:20.455Z,9.00
2019-04-27T18:57:50.893Z,8.90
2019-04-27T19:00:22.284Z,8.90
2019-04-27T19:02:53.235Z,9.00
2019-04-27T19:05:24.087Z,9.00
2019-04-27T19:07:55.051Z,9.10
2019-04-27T19:10:25.975Z,9.10
2019-04-27T19:12:58.495Z,9.00
2019-04-27T19:15:30.487Z,9.00
2019-04-27T19:18:01.461Z,8.90
2019-04-27T19:20:32.321Z,8.80
2019-04-27T19:23:03.303Z,8.70
2019-04-27T19:25:58.980Z,8.60
2019-04-27T19:28:43.269Z,8.50
2019-04-27T19:31:18.919Z,8.50
2019-04-27T19:33:49.802Z,8.40
2019-04-27T19:36:20.701Z,8.40
2019-04-27T19:38:51.573Z,8.30
2019-04-27T19:41:22.379Z,8.20
2019-04-27T19:43:53.344Z,8.20
2019-04-27T19:46:24.329Z,8.10
2019-04-27T19:48:55.152Z,8.10
2019-04-27T19:51:27.875Z,8.10
2019-04-27T19:53:58.613Z,8.00
2019-04-27T19:56:29.509Z,7.90
2019-04-27T19:59:02.719Z,7.90
2019-04-27T20:01:38.314Z,7.80
2019-04-27T20:04:24.739Z,7.80
2019-04-27T20:06:55.706Z,7.70
2019-04-27T20:09:32.957Z,7.60
2019-04-27T20:12:05.220Z,7.60
2019-04-27T20:14:53.765Z,7.50
2019-04-27T20:17:28.733Z,7.50
2019-04-27T20:20:00.041Z,7.40
2019-04-27T20:22:30.955Z,7.40
2019-04-27T20:25:02.167Z,7.30
2019-04-27T20:27:45.282Z,7.30
2019-04-27T20:30:08.649Z,7.30
2019-04-27T20:32:39.686Z,7.40
2019-04-27T20:35:11.755Z,7.50
2019-04-27T20:37:43.908Z,7.60
2019-04-27T20:40:14.902Z,7.60
2019-04-27T20:42:45.866Z,7.60
2019-04-27T20:45:16.892Z,7.60
2019-04-27T20:47:47.921Z,7.60
2019-04-27T20:50:18.940Z,7.60
2019-04-27T20:52:54.280Z,7.60
2019-04-27T20:55:26.162Z,7.70
2019-04-27T20:58:02.562Z,7.70
2019-04-27T21:00:29.674Z,7.80
2019-04-27T21:03:18.130Z,7.90
2019-04-27T21:06:15.342Z,8.00
2019-04-27T21:08:46.262Z,8.10
2019-04-27T21:11:17.210Z,8.30
2019-04-27T21:13:48.124Z,8.40
2019-04-27T21:16:21.001Z,8.40
2019-04-27T21:18:53.225Z,8.50
2019-04-27T21:21:24.443Z,8.50
2019-04-27T21:23:55.285Z,8.60
2019-04-27T21:26:26.155Z,8.60
2019-04-27T21:28:57.038Z,8.70
2019-04-27T21:31:28.476Z,8.70
2019-04-27T21:33:59.400Z,8.80
2019-04-27T21:36:31.310Z,8.90
2019-04-27T21:39:02.243Z,9.00
2019-04-27T21:41:34.689Z,9.10
2019-04-27T21:44:05.535Z,9.20
2019-04-27T21:46:36.795Z,9.20
2019-04-27T21:49:07.665Z,9.20
2019-04-27T21:51:57.415Z,9.10
2019-04-27T21:54:28.812Z,9.10
2019-04-27T21:56:59.606Z,9.00
2019-04-27T21:59:30.523Z,8.90
2019-04-27T22:02:02.462Z,8.70
2019-04-27T22:04:33.490Z,8.60
2019-04-27T22:07:04.525Z,8.40
2019-04-27T22:09:35.472Z,8.30
2019-04-27T22:12:06.419Z,8.20
2019-04-27T22:14:37.287Z,8.00
2019-04-27T22:17:08.171Z,8.00
2019-04-27T22:19:41.180Z,8.00
2019-04-27T22:22:21.180Z,7.90
2019-04-27T22:24:53.659Z,7.90
2019-04-27T22:27:25.618Z,7.90
2019-04-27T22:29:56.493Z,7.90
2019-04-27T22:32:27.397Z,7.80
2019-04-27T22:34:58.259Z,7.80
2019-04-27T22:37:29.237Z,7.90
2019-04-27T22:40:19.129Z,7.90
2019-04-27T22:43:07.395Z,8.10
2019-04-27T22:45:42.220Z,8.20
2019-04-27T22:48:11.714Z,8.30
2019-04-27T22:50:42.599Z,8.40
2019-04-27T22:53:13.507Z,8.50
2019-04-27T22:56:01.883Z,8.50
2019-04-27T22:58:33.815Z,8.50
2019-04-27T23:01:22.428Z,8.60
2019-04-27T23:03:54.969Z,8.60
2019-04-27T23:06:25.825Z,8.60
2019-04-27T23:08:56.591Z,8.60
2019-04-27T23:11:29.007Z,8.60
2019-04-27T23:14:01.058Z,8.60
2019-04-27T23:16:33.631Z,8.60
2019-04-27T23:19:04.390Z,8.60
2019-04-27T23:21:35.316Z,8.60
2019-04-27T23:24:06.247Z,8.70
2019-04-27T23:26:37.454Z,8.70
2019-04-27T23:29:13.570Z,8.70
2019-04-27T23:31:50.278Z,8.70
2019-04-27T23:34:21.628Z,8.80
2019-04-27T23:36:52.622Z,8.80
2019-04-27T23:39:24.449Z,8.80
2019-04-27T23:41:55.390Z,8.80
2019-04-27T23:44:26.334Z,8.90
2019-04-27T23:46:57.287Z,8.90
2019-04-27T23:49:28.210Z,8.90
2019-04-27T23:52:04.686Z,9.00
2019-04-27T23:54:35.907Z,9.00
2019-04-27T23:57:06.835Z,9.00
2019-04-27T23:59:37.807Z,9.00
